FOLSOM LAKE (FOL)

Elevation: 466' · AMERICAN R basin · Operator: US Bureau of Reclamation

Provisional data, subject to change.
Query executed Wednesday at 10:22:23   clock

Select a sensor type for a plot of data.
Note: Reservoir Flows are daily averages.

Earlier

Date RES ELE    STORAGE    RES CHG    TOC STO    ABV TOC    OUTFLOW    INFLOW    EVAP    FNF    RIV REL    PPT INC    SPILL    DC PUMP    DIS PWR   
 FEET   AF   AF   AF   AF   CFS   CFS   CFS   CFS   CFS   INCHES   CFS   CFS   CFS  
02/05/2015 409.70 447594 593 577000 -129406 889 1195 7 933 0 0.00 0 54 835
02/06/2015 410.05 450189 2595 577000 -126811 901 2224 15 1992 0 1.00 0 51 850
02/07/2015 411.27 459336 9147 577000 -117664 808 5430 10 11753 0 0.00 0 51 757
02/08/2015 412.76 470652 11316 579365 -108713 949 6659 5 15840 0 1.11 0 62 887
02/09/2015 416.57 500342 29690 581345 -81003 945 15926 13 26019 0 0.18 0 59 886
02/10/2015 418.61 516683 16341 583750 -67067 679 8917 0 11408 0 0.00 0 59 620
02/11/2015 419.71 525623 8940 586268 -60645 945 5452 0 6794 0 0.00 0 62 883
02/12/2015 420.47 531855 6232 588905 -57050 908 4050 0 4684 0 0.00 0 61 847
02/13/2015 420.99 536135 4280 -- -- 1157 3326 11 4188 0 0.00 0 58 1099
02/14/2015 421.52 540536 4401 593667 -- 914 3144 11 4166 0 0.00 0 58 856
02/15/2015 421.86 543359 2823 596048 -- 896 2330 11 3079 0 0.00 0 63 833
02/16/2015 422.18 546031 2672 598429 -- 1016 2374 11 2442 0 0.00 0 64 952
02/17/2015 422.45 548293 2262 600810 -52516 1313 2464 11 2913 0 0.00 0 65 1248
02/18/2015 422.73 550640 2347 603190 -52550 792 1986 11 2419 0 0.00 0 66 726
02/19/2015 422.93 552316 1676 605571 -53255 949 1805 11 2300 0 0.00 0 64 885
02/20/2015 423.08 553580 1264 607952 -- 861 1509 11 1845 0 0.00 0 68 793
02/21/2015 423.32 555609 2029 610333 -- 915 2017 79 2129 0 0.00 0 65 850
02/22/2015 423.53 557385 1776 612714 -55329 750 1679 34 1950 0 0.00 0 63 687
02/23/2015 423.72 558992 1607 615095 -56103 648 1469 11 1514 0 0.00 0 64 584
02/24/2015 423.84 560007 1015 617476 -57469 951 1474 11 1595 0 0.00 0 67 884
02/25/2015 423.96 561022 1015 619857 -58835 840 1363 11 1287 0 0.00 0 68 772
02/26/2015 424.09 562128 1106 622238 -60110 865 1434 11 1505 0 0.00 0 72 793
02/27/2015 424.14 562555 427 624619 -- 965 1191 11 1244 0 0.02 0 69 896
02/28/2015 424.34 564261 1706 627000 -- 900 1771 11 2054 0 0.00 0 63 837
03/01/2015 424.48 565456 1195 629381 -- 849 1462 11 1518 0 0.00 0 65 784
03/02/2015 424.62 566650 1194 631762 -65112 1044 1677 31 1731 0 0.00 0 73 971
03/03/2015 424.69 567248 598 634143 -- 1167 1488 20 -- 0 0.00 0 72 1095
03/04/2015 -- -- -- -- -- -- -- -- -- -- -- -- -- --

Later | Latest

Warning! This data is preliminary and subject to revision.

Show FOL Map | Plot FOL Data | 1 Month FOL Data | Real-Time FOL Data | FOL Info